createdAt,value
2019-04-25T12:34:56.037Z,1.87
2019-04-25T12:39:01.213Z,1.27
2019-04-25T12:43:06.888Z,1.30
2019-04-25T12:47:18.181Z,1.47
2019-04-25T12:51:23.207Z,1.30
2019-04-25T12:55:34.178Z,1.07
2019-04-25T12:59:40.376Z,1.60
2019-04-25T13:03:45.327Z,1.10
2019-04-25T13:07:51.468Z,1.33
2019-04-25T13:11:57.298Z,1.60
2019-04-25T13:16:02.279Z,1.00
2019-04-25T13:20:07.684Z,2.00
2019-04-25T13:24:12.531Z,2.30
2019-04-25T13:28:34.942Z,1.40
2019-04-25T13:32:57.894Z,1.17
2019-04-25T13:37:04.978Z,1.40
2019-04-25T13:41:10.157Z,1.40
2019-04-25T13:45:15.834Z,1.40
2019-04-25T13:49:20.749Z,1.30
2019-04-25T13:53:25.983Z,1.30
2019-04-25T13:57:30.879Z,1.47
2019-04-25T14:01:36.528Z,1.90
2019-04-25T14:05:41.550Z,1.27
2019-04-25T14:09:46.708Z,1.10
2019-04-25T14:13:51.899Z,1.03
2019-04-25T14:18:07.872Z,1.40
2019-04-25T14:22:12.950Z,1.10
2019-04-25T14:26:18.160Z,1.60
2019-04-25T14:30:28.225Z,1.40
2019-04-25T14:34:39.445Z,1.33
2019-04-25T14:38:51.487Z,1.10
2019-04-25T14:43:02.460Z,1.80
2019-04-25T14:47:13.590Z,1.70
2019-04-25T14:51:22.992Z,1.27
2019-04-25T14:55:59.690Z,1.43
2019-04-25T15:00:08.039Z,1.27
2019-04-25T15:04:13.045Z,1.70
2019-04-25T15:08:18.060Z,1.17
2019-04-25T15:12:24.766Z,1.77
2019-04-25T15:16:29.910Z,1.27
2019-04-25T15:20:35.178Z,1.33
2019-04-25T15:24:40.373Z,1.97
2019-04-25T15:28:45.729Z,1.30
2019-04-25T15:32:50.858Z,1.47
2019-04-25T15:37:01.175Z,2.10
2019-04-25T15:41:18.219Z,1.77
2019-04-25T15:45:41.453Z,1.20
2019-04-25T15:49:46.609Z,2.13
2019-04-25T15:53:51.545Z,1.70
2019-04-25T15:58:00.259Z,1.90
2019-04-25T16:02:08.199Z,2.53
2019-04-25T16:06:13.567Z,1.70
2019-04-25T16:10:18.658Z,2.00
2019-04-25T16:14:23.874Z,1.90
2019-04-25T16:18:28.859Z,1.47
2019-04-25T16:22:34.418Z,2.00
2019-04-25T16:26:39.905Z,1.77
2019-04-25T16:30:44.887Z,2.20
2019-04-25T16:34:49.826Z,3.23
2019-04-25T16:39:19.445Z,2.22
2019-04-25T16:43:28.603Z,1.70
2019-04-25T16:47:35.161Z,1.53
2019-04-25T16:51:40.066Z,1.60
2019-04-25T16:55:44.986Z,2.83
2019-04-25T16:59:50.256Z,1.62
2019-04-25T17:03:55.198Z,2.00
2019-04-25T17:08:01.470Z,2.33
2019-04-25T17:12:08.353Z,2.00
2019-04-25T17:16:30.703Z,2.13
2019-04-25T17:20:40.436Z,1.80
2019-04-25T17:24:45.910Z,2.10
2019-04-25T17:28:52.356Z,2.03
2019-04-25T17:33:19.068Z,2.13
2019-04-25T17:37:31.933Z,2.30
2019-04-25T17:42:13.903Z,2.03
2019-04-25T17:46:21.172Z,2.17
2019-04-25T17:50:26.054Z,4.67
2019-04-25T17:54:32.808Z,2.40
2019-04-25T17:58:37.901Z,2.30
2019-04-25T18:02:43.530Z,2.60
2019-04-25T18:06:48.570Z,2.17
2019-04-25T18:10:53.461Z,2.00
2019-04-25T18:15:00.988Z,1.90
2019-04-25T18:19:09.995Z,1.93
2019-04-25T18:23:35.135Z,1.50
2019-04-25T18:27:50.287Z,2.40
2019-04-25T18:31:55.446Z,1.90
2019-04-25T18:36:12.447Z,1.87
2019-04-25T18:40:30.246Z,2.03
2019-04-25T18:44:35.625Z,2.03
2019-04-25T18:48:42.768Z,2.03
2019-04-25T18:52:57.304Z,1.97
2019-04-25T18:57:19.554Z,2.10
2019-04-25T19:01:41.824Z,2.27
2019-04-25T19:05:58.373Z,2.90
2019-04-25T19:10:04.730Z,3.77
2019-04-25T19:14:10.320Z,3.50
2019-04-25T19:18:16.201Z,3.43
2019-04-25T19:22:21.877Z,2.83
2019-04-25T19:26:26.753Z,2.40
2019-04-25T19:30:32.651Z,2.73
2019-04-25T19:34:40.166Z,6.10
2019-04-25T19:38:46.713Z,4.57
2019-04-25T19:42:55.780Z,3.13
2019-04-25T19:47:00.984Z,3.10
2019-04-25T19:51:06.426Z,2.80
2019-04-25T19:55:11.351Z,2.90
2019-04-25T19:59:16.264Z,2.20
2019-04-25T20:12:02.015Z,2.20
2019-04-25T20:16:08.683Z,3.10
2019-04-25T20:29:05.681Z,2.60
2019-04-25T20:33:10.911Z,1.57
2019-04-25T20:37:18.439Z,2.80
2019-04-25T20:41:23.550Z,2.87
2019-04-25T20:45:28.619Z,1.87
2019-04-25T20:49:33.619Z,1.83
2019-04-25T20:54:14.245Z,2.07
2019-04-25T20:58:19.159Z,2.30
2019-04-25T21:02:24.044Z,2.17
2019-04-25T21:06:33.224Z,2.00
2019-04-25T21:10:38.221Z,1.80
2019-04-25T21:15:00.405Z,2.23
2019-04-25T21:19:12.047Z,2.13
2019-04-25T21:23:17.182Z,1.90
2019-04-25T21:27:22.162Z,2.77
2019-04-25T21:31:27.024Z,1.90
2019-04-25T21:35:31.928Z,1.93
2019-04-25T21:39:52.337Z,2.13
2019-04-25T21:44:02.276Z,2.20
2019-04-25T21:48:07.426Z,2.50
2019-04-25T21:52:12.584Z,2.90
2019-04-25T21:56:17.749Z,2.03
2019-04-25T22:00:40.089Z,2.50
2019-04-25T22:04:45.157Z,2.23
2019-04-25T22:08:50.868Z,2.20
2019-04-25T22:12:57.714Z,2.30
2019-04-25T22:17:02.359Z,3.13
2019-04-25T22:21:07.746Z,2.77
2019-04-25T22:25:13.012Z,2.63
2019-04-25T22:29:18.002Z,2.17
2019-04-25T22:33:40.366Z,2.00
2019-04-25T22:37:45.533Z,2.30
2019-04-25T22:41:50.809Z,3.10
2019-04-25T22:45:56.558Z,2.80
2019-04-25T22:50:02.557Z,2.70
2019-04-25T22:54:07.974Z,2.30
2019-04-25T22:58:12.946Z,2.57
2019-04-25T23:02:33.343Z,3.20
2019-04-25T23:06:38.218Z,2.77
2019-04-25T23:10:43.204Z,2.50
2019-04-25T23:14:48.390Z,2.50
2019-04-25T23:18:53.310Z,2.03
2019-04-25T23:22:58.226Z,2.87
2019-04-25T23:27:14.333Z,2.20
2019-04-25T23:31:22.915Z,2.63
2019-04-25T23:35:30.049Z,3.33
2019-04-25T23:39:34.348Z,2.43
